sensor_id;sensor_type;location;lat;lon;timestamp;pressure;altitude;pressure_sealevel;temperature;humidity
11523;BME280;70090;43.208;27.904;2023-07-31T00:01:00;100298.28;;;25.13;100.00
11523;BME280;70090;43.208;27.904;2023-07-31T00:03:28;100298.75;;;25.11;100.00
11523;BME280;70090;43.208;27.904;2023-07-31T00:05:55;100286.44;;;24.76;100.00
11523;BME280;70090;43.208;27.904;2023-07-31T00:08:21;100290.41;;;24.70;100.00
11523;BME280;70090;43.208;27.904;2023-07-31T00:10:51;100281.63;;;24.77;100.00
11523;BME280;70090;43.208;27.904;2023-07-31T00:13:18;100280.31;;;24.87;100.00
11523;BME280;70090;43.208;27.904;2023-07-31T00:15:45;100288.38;;;24.94;100.00
11523;BME280;70090;43.208;27.904;2023-07-31T00:18:11;100286.81;;;24.93;100.00
11523;BME280;70090;43.208;27.904;2023-07-31T00:20:40;100295.56;;;24.95;100.00
11523;BME280;70090;43.208;27.904;2023-07-31T00:23:07;100298.03;;;25.02;100.00
11523;BME280;70090;43.208;27.904;2023-07-31T00:25:33;100303.50;;;25.05;100.00
11523;BME280;70090;43.208;27.904;2023-07-31T00:28:00;100303.31;;;25.09;100.00
11523;BME280;70090;43.208;27.904;2023-07-31T00:30:27;100299.00;;;24.99;100.00
11523;BME280;70090;43.208;27.904;2023-07-31T00:32:54;100293.88;;;24.88;100.00
11523;BME280;70090;43.208;27.904;2023-07-31T00:35:21;100291.50;;;24.72;100.00
11523;BME280;70090;43.208;27.904;2023-07-31T00:37:49;100286.06;;;24.51;100.00
11523;BME280;70090;43.208;27.904;2023-07-31T00:40:16;100294.59;;;24.33;100.00
11523;BME280;70090;43.208;27.904;2023-07-31T00:42:43;100294.34;;;24.13;100.00
11523;BME280;70090;43.208;27.904;2023-07-31T00:45:09;100291.88;;;23.88;100.00
11523;BME280;70090;43.208;27.904;2023-07-31T00:47:36;100290.66;;;23.71;100.00
11523;BME280;70090;43.208;27.904;2023-07-31T00:50:05;100283.94;;;23.50;100.00
11523;BME280;70090;43.208;27.904;2023-07-31T00:52:32;100301.56;;;23.42;100.00
11523;BME280;70090;43.208;27.904;2023-07-31T00:55:00;100304.06;;;23.22;100.00
11523;BME280;70090;43.208;27.904;2023-07-31T00:57:27;100300.13;;;23.10;100.00
11523;BME280;70090;43.208;27.904;2023-07-31T00:59:54;100295.41;;;22.98;100.00
11523;BME280;70090;43.208;27.904;2023-07-31T01:02:21;100297.28;;;22.93;100.00
11523;BME280;70090;43.208;27.904;2023-07-31T01:04:48;100287.44;;;22.88;100.00
11523;BME280;70090;43.208;27.904;2023-07-31T01:07:20;100296.44;;;22.83;100.00
11523;BME280;70090;43.208;27.904;2023-07-31T01:09:54;100292.09;;;22.82;100.00
11523;BME280;70090;43.208;27.904;2023-07-31T01:12:28;100289.59;;;22.75;100.00
11523;BME280;70090;43.208;27.904;2023-07-31T01:15:03;100294.91;;;22.73;100.00
11523;BME280;70090;43.208;27.904;2023-07-31T01:17:31;100296.59;;;22.71;100.00
11523;BME280;70090;43.208;27.904;2023-07-31T01:20:02;100299.81;;;22.60;100.00
11523;BME280;70090;43.208;27.904;2023-07-31T01:25:46;100292.44;;;22.45;100.00
11523;BME280;70090;43.208;27.904;2023-07-31T01:28:17;100282.88;;;22.33;100.00
11523;BME280;70090;43.208;27.904;2023-07-31T01:30:48;100308.63;;;22.41;100.00
11523;BME280;70090;43.208;27.904;2023-07-31T01:33:16;100302.22;;;22.40;100.00
11523;BME280;70090;43.208;27.904;2023-07-31T01:35:44;100307.06;;;22.40;100.00
11523;BME280;70090;43.208;27.904;2023-07-31T01:38:11;100317.13;;;22.37;100.00
11523;BME280;70090;43.208;27.904;2023-07-31T01:40:41;100312.28;;;22.29;100.00
11523;BME280;70090;43.208;27.904;2023-07-31T01:43:09;100321.81;;;22.31;100.00
11523;BME280;70090;43.208;27.904;2023-07-31T01:45:36;100320.19;;;22.21;100.00
11523;BME280;70090;43.208;27.904;2023-07-31T01:48:03;100314.41;;;22.25;100.00
11523;BME280;70090;43.208;27.904;2023-07-31T01:50:30;100315.56;;;22.36;100.00
11523;BME280;70090;43.208;27.904;2023-07-31T01:52:57;100318.53;;;22.33;100.00
11523;BME280;70090;43.208;27.904;2023-07-31T01:55:24;100323.56;;;22.16;100.00
11523;BME280;70090;43.208;27.904;2023-07-31T01:57:51;100318.44;;;21.93;100.00
11523;BME280;70090;43.208;27.904;2023-07-31T02:00:20;100312.25;;;21.77;100.00
11523;BME280;70090;43.208;27.904;2023-07-31T02:02:47;100321.59;;;21.61;100.00
11523;BME280;70090;43.208;27.904;2023-07-31T02:05:13;100322.81;;;21.39;100.00
11523;BME280;70090;43.208;27.904;2023-07-31T02:07:40;100332.59;;;21.22;100.00
11523;BME280;70090;43.208;27.904;2023-07-31T02:10:07;100335.66;;;21.02;100.00
11523;BME280;70090;43.208;27.904;2023-07-31T02:12:34;100332.78;;;20.93;100.00
11523;BME280;70090;43.208;27.904;2023-07-31T02:15:01;100323.59;;;20.93;100.00
11523;BME280;70090;43.208;27.904;2023-07-31T02:17:29;100323.09;;;21.07;100.00
11523;BME280;70090;43.208;27.904;2023-07-31T02:19:56;100319.97;;;21.17;100.00
11523;BME280;70090;43.208;27.904;2023-07-31T02:22:23;100319.34;;;21.35;100.00
11523;BME280;70090;43.208;27.904;2023-07-31T02:24:50;100329.91;;;21.52;100.00
11523;BME280;70090;43.208;27.904;2023-07-31T02:27:17;100323.38;;;21.68;100.00
11523;BME280;70090;43.208;27.904;2023-07-31T02:29:43;100332.69;;;21.86;100.00
11523;BME280;70090;43.208;27.904;2023-07-31T02:32:10;100320.06;;;22.03;100.00
11523;BME280;70090;43.208;27.904;2023-07-31T02:34:39;100313.03;;;22.20;100.00
11523;BME280;70090;43.208;27.904;2023-07-31T02:37:05;100309.22;;;22.36;100.00
11523;BME280;70090;43.208;27.904;2023-07-31T02:39:32;100315.69;;;22.54;100.00
11523;BME280;70090;43.208;27.904;2023-07-31T02:41:59;100322.94;;;22.73;100.00
11523;BME280;70090;43.208;27.904;2023-07-31T02:44:26;100323.75;;;22.83;100.00
11523;BME280;70090;43.208;27.904;2023-07-31T02:46:53;100319.06;;;22.89;100.00
11523;BME280;70090;43.208;27.904;2023-07-31T02:49:20;100303.38;;;23.00;100.00
11523;BME280;70090;43.208;27.904;2023-07-31T02:51:48;100305.75;;;23.10;100.00
11523;BME280;70090;43.208;27.904;2023-07-31T02:54:15;100324.34;;;23.17;100.00
11523;BME280;70090;43.208;27.904;2023-07-31T02:56:42;100325.91;;;23.18;100.00
11523;BME280;70090;43.208;27.904;2023-07-31T02:59:09;100324.34;;;23.17;100.00
11523;BME280;70090;43.208;27.904;2023-07-31T03:01:35;100338.03;;;23.15;100.00
11523;BME280;70090;43.208;27.904;2023-07-31T03:04:01;100320.53;;;23.11;100.00
11523;BME280;70090;43.208;27.904;2023-07-31T03:06:28;100327.75;;;23.21;100.00
11523;BME280;70090;43.208;27.904;2023-07-31T03:08:56;100332.00;;;23.25;100.00
11523;BME280;70090;43.208;27.904;2023-07-31T03:11:23;100336.06;;;23.42;100.00
11523;BME280;70090;43.208;27.904;2023-07-31T03:13:50;100340.91;;;23.51;100.00
11523;BME280;70090;43.208;27.904;2023-07-31T03:16:17;100343.72;;;23.51;100.00
11523;BME280;70090;43.208;27.904;2023-07-31T03:18:44;100336.34;;;23.26;100.00
11523;BME280;70090;43.208;27.904;2023-07-31T03:21:12;100343.59;;;22.97;100.00
11523;BME280;70090;43.208;27.904;2023-07-31T03:23:39;100339.34;;;22.84;100.00
11523;BME280;70090;43.208;27.904;2023-07-31T03:26:08;100347.25;;;22.76;100.00
11523;BME280;70090;43.208;27.904;2023-07-31T03:28:36;100339.13;;;22.69;100.00
11523;BME280;70090;43.208;27.904;2023-07-31T03:31:03;100338.19;;;22.72;100.00
11523;BME280;70090;43.208;27.904;2023-07-31T03:33:29;100335.47;;;22.90;100.00
11523;BME280;70090;43.208;27.904;2023-07-31T03:35:56;100338.59;;;23.01;100.00
11523;BME280;70090;43.208;27.904;2023-07-31T03:38:23;100330.88;;;23.14;100.00
11523;BME280;70090;43.208;27.904;2023-07-31T03:40:50;100335.88;;;23.19;100.00
11523;BME280;70090;43.208;27.904;2023-07-31T03:43:18;100339.63;;;23.16;100.00
11523;BME280;70090;43.208;27.904;2023-07-31T03:45:45;100333.13;;;22.98;100.00
11523;BME280;70090;43.208;27.904;2023-07-31T03:48:15;100333.88;;;22.80;100.00
11523;BME280;70090;43.208;27.904;2023-07-31T03:50:42;100328.88;;;22.75;100.00
11523;BME280;70090;43.208;27.904;2023-07-31T03:53:08;100341.03;;;22.81;100.00
11523;BME280;70090;43.208;27.904;2023-07-31T03:55:35;100342.28;;;22.80;100.00
11523;BME280;70090;43.208;27.904;2023-07-31T03:58:02;100351.28;;;22.66;100.00
11523;BME280;70090;43.208;27.904;2023-07-31T04:00:30;100338.00;;;22.58;100.00
11523;BME280;70090;43.208;27.904;2023-07-31T04:02:57;100337.28;;;22.45;100.00
11523;BME280;70090;43.208;27.904;2023-07-31T04:05:24;100340.44;;;22.25;100.00
11523;BME280;70090;43.208;27.904;2023-07-31T04:07:51;100341.06;;;22.20;100.00
11523;BME280;70090;43.208;27.904;2023-07-31T04:10:18;100335.66;;;22.35;100.00
11523;BME280;70090;43.208;27.904;2023-07-31T04:12:45;100336.44;;;22.35;100.00
11523;BME280;70090;43.208;27.904;2023-07-31T04:15:11;100344.81;;;22.26;100.00
11523;BME280;70090;43.208;27.904;2023-07-31T04:17:40;100341.38;;;22.22;100.00
11523;BME280;70090;43.208;27.904;2023-07-31T04:20:07;100344.75;;;22.17;100.00
11523;BME280;70090;43.208;27.904;2023-07-31T04:22:34;100346.91;;;22.13;100.00
11523;BME280;70090;43.208;27.904;2023-07-31T04:25:01;100339.75;;;22.12;100.00
11523;BME280;70090;43.208;27.904;2023-07-31T04:27:28;100335.81;;;22.31;100.00
11523;BME280;70090;43.208;27.904;2023-07-31T04:29:55;100340.75;;;22.49;100.00
11523;BME280;70090;43.208;27.904;2023-07-31T04:32:22;100337.84;;;22.61;100.00
11523;BME280;70090;43.208;27.904;2023-07-31T04:34:50;100343.22;;;22.77;100.00
11523;BME280;70090;43.208;27.904;2023-07-31T04:37:17;100336.56;;;22.93;100.00
11523;BME280;70090;43.208;27.904;2023-07-31T04:39:43;100349.84;;;23.01;100.00
11523;BME280;70090;43.208;27.904;2023-07-31T04:42:10;100354.13;;;23.14;100.00
11523;BME280;70090;43.208;27.904;2023-07-31T04:44:37;100353.03;;;23.21;100.00
11523;BME280;70090;43.208;27.904;2023-07-31T04:47:04;100358.50;;;23.24;100.00
11523;BME280;70090;43.208;27.904;2023-07-31T04:49:31;100354.13;;;23.23;100.00
11523;BME280;70090;43.208;27.904;2023-07-31T04:52:00;100356.16;;;23.23;100.00
11523;BME280;70090;43.208;27.904;2023-07-31T04:54:26;100362.25;;;23.30;100.00
11523;BME280;70090;43.208;27.904;2023-07-31T04:56:53;100372.41;;;23.37;100.00
11523;BME280;70090;43.208;27.904;2023-07-31T04:59:20;100378.19;;;23.42;100.00
11523;BME280;70090;43.208;27.904;2023-07-31T05:01:47;100374.31;;;23.49;100.00
11523;BME280;70090;43.208;27.904;2023-07-31T05:04:14;100370.41;;;23.46;100.00
11523;BME280;70090;43.208;27.904;2023-07-31T05:06:41;100370.25;;;23.50;100.00
11523;BME280;70090;43.208;27.904;2023-07-31T05:09:10;100372.13;;;23.62;100.00
11523;BME280;70090;43.208;27.904;2023-07-31T05:11:37;100364.47;;;23.62;100.00
11523;BME280;70090;43.208;27.904;2023-07-31T05:14:05;100381.38;;;23.89;100.00
11523;BME280;70090;43.208;27.904;2023-07-31T05:16:33;100377.59;;;24.01;100.00
11523;BME280;70090;43.208;27.904;2023-07-31T05:19:00;100378.06;;;24.18;100.00
11523;BME280;70090;43.208;27.904;2023-07-31T05:21:26;100387.06;;;24.40;100.00
11523;BME280;70090;43.208;27.904;2023-07-31T05:23:53;100389.72;;;24.52;100.00
11523;BME280;70090;43.208;27.904;2023-07-31T05:26:22;100388.63;;;24.59;100.00
11523;BME280;70090;43.208;27.904;2023-07-31T05:28:49;100392.69;;;24.58;100.00
11523;BME280;70090;43.208;27.904;2023-07-31T05:31:15;100390.19;;;24.60;100.00
11523;BME280;70090;43.208;27.904;2023-07-31T05:33:42;100397.38;;;24.43;100.00
11523;BME280;70090;43.208;27.904;2023-07-31T05:36:09;100396.59;;;24.51;100.00
11523;BME280;70090;43.208;27.904;2023-07-31T05:38:36;100394.41;;;24.55;100.00
11523;BME280;70090;43.208;27.904;2023-07-31T05:41:03;100398.16;;;24.43;100.00
11523;BME280;70090;43.208;27.904;2023-07-31T05:43:31;100394.75;;;24.39;100.00
11523;BME280;70090;43.208;27.904;2023-07-31T05:45:58;100394.75;;;24.39;100.00
11523;BME280;70090;43.208;27.904;2023-07-31T05:48:25;100390.19;;;24.42;100.00
11523;BME280;70090;43.208;27.904;2023-07-31T05:50:51;100367.75;;;24.24;100.00
11523;BME280;70090;43.208;27.904;2023-07-31T05:53:18;100398.59;;;24.69;100.00
11523;BME280;70090;43.208;27.904;2023-07-31T05:55:45;100399.16;;;24.82;100.00
11523;BME280;70090;43.208;27.904;2023-07-31T05:58:12;100393.47;;;25.00;100.00
11523;BME280;70090;43.208;27.904;2023-07-31T06:00:40;100406.84;;;25.14;100.00
11523;BME280;70090;43.208;27.904;2023-07-31T06:03:07;100402.59;;;25.18;100.00
11523;BME280;70090;43.208;27.904;2023-07-31T06:05:34;100400.25;;;25.17;100.00
11523;BME280;70090;43.208;27.904;2023-07-31T06:08:01;100397.13;;;24.91;100.00
11523;BME280;70090;43.208;27.904;2023-07-31T06:10:28;100400.44;;;24.81;100.00
11523;BME280;70090;43.208;27.904;2023-07-31T06:12:55;100399.31;;;24.87;100.00
11523;BME280;70090;43.208;27.904;2023-07-31T06:15:22;100394.72;;;24.99;100.00
11523;BME280;70090;43.208;27.904;2023-07-31T06:17:50;100402.00;;;25.14;100.00
11523;BME280;70090;43.208;27.904;2023-07-31T06:20:17;100412.19;;;25.12;100.00
11523;BME280;70090;43.208;27.904;2023-07-31T06:22:44;100408.84;;;25.22;100.00
11523;BME280;70090;43.208;27.904;2023-07-31T06:25:12;100419.31;;;24.89;100.00
11523;BME280;70090;43.208;27.904;2023-07-31T06:27:38;100415.63;;;25.07;100.00
11523;BME280;70090;43.208;27.904;2023-07-31T06:30:07;100418.41;;;25.16;100.00
11523;BME280;70090;43.208;27.904;2023-07-31T06:32:33;100421.75;;;25.05;100.00
11523;BME280;70090;43.208;27.904;2023-07-31T06:35:03;100421.84;;;25.20;100.00
11523;BME280;70090;43.208;27.904;2023-07-31T06:37:30;100423.75;;;24.81;100.00
11523;BME280;70090;43.208;27.904;2023-07-31T06:39:57;100433.50;;;25.04;100.00
11523;BME280;70090;43.208;27.904;2023-07-31T06:42:23;100434.56;;;25.06;100.00
11523;BME280;70090;43.208;27.904;2023-07-31T06:44:50;100429.38;;;25.23;100.00
11523;BME280;70090;43.208;27.904;2023-07-31T06:47:17;100432.13;;;25.32;100.00
11523;BME280;70090;43.208;27.904;2023-07-31T06:49:45;100421.50;;;25.27;100.00
11523;BME280;70090;43.208;27.904;2023-07-31T06:52:13;100431.97;;;25.35;100.00
11523;BME280;70090;43.208;27.904;2023-07-31T06:54:40;100430.34;;;25.43;100.00
11523;BME280;70090;43.208;27.904;2023-07-31T06:57:07;100426.53;;;25.23;100.00
11523;BME280;70090;43.208;27.904;2023-07-31T06:59:33;100427.84;;;25.45;100.00
11523;BME280;70090;43.208;27.904;2023-07-31T07:02:00;100423.22;;;25.57;100.00
11523;BME280;70090;43.208;27.904;2023-07-31T07:04:27;100420.25;;;25.28;100.00
11523;BME280;70090;43.208;27.904;2023-07-31T07:06:54;100427.88;;;25.36;100.00
11523;BME280;70090;43.208;27.904;2023-07-31T07:09:22;100424.91;;;25.40;100.00
11523;BME280;70090;43.208;27.904;2023-07-31T07:11:49;100432.13;;;25.78;100.00
11523;BME280;70090;43.208;27.904;2023-07-31T07:14:16;100429.63;;;25.80;100.00
11523;BME280;70090;43.208;27.904;2023-07-31T07:16:43;100422.56;;;25.62;100.00
11523;BME280;70090;43.208;27.904;2023-07-31T07:19:09;100427.94;;;25.97;100.00
11523;BME280;70090;43.208;27.904;2023-07-31T07:21:36;100426.91;;;26.09;100.00
11523;BME280;70090;43.208;27.904;2023-07-31T07:24:04;100430.63;;;26.15;100.00
11523;BME280;70090;43.208;27.904;2023-07-31T07:26:32;100430.22;;;26.22;100.00
11523;BME280;70090;43.208;27.904;2023-07-31T07:28:59;100428.56;;;26.54;100.00
11523;BME280;70090;43.208;27.904;2023-07-31T07:31:27;100422.84;;;26.25;100.00
11523;BME280;70090;43.208;27.904;2023-07-31T07:33:54;100431.66;;;26.56;100.00
11523;BME280;70090;43.208;27.904;2023-07-31T07:36:22;100425.59;;;26.77;100.00
11523;BME280;70090;43.208;27.904;2023-07-31T07:38:49;100429.66;;;27.05;100.00
11523;BME280;70090;43.208;27.904;2023-07-31T07:41:16;100426.88;;;27.40;100.00
11523;BME280;70090;43.208;27.904;2023-07-31T07:43:44;100427.38;;;27.38;100.00
11523;BME280;70090;43.208;27.904;2023-07-31T07:46:11;100431.28;;;27.61;100.00
11523;BME280;70090;43.208;27.904;2023-07-31T07:48:38;100426.53;;;27.72;100.00
11523;BME280;70090;43.208;27.904;2023-07-31T07:51:05;100417.63;;;27.39;100.00
11523;BME280;70090;43.208;27.904;2023-07-31T07:53:31;100420.34;;;27.68;100.00
11523;BME280;70090;43.208;27.904;2023-07-31T07:55:58;100417.94;;;27.81;100.00
11523;BME280;70090;43.208;27.904;2023-07-31T07:58:25;100415.13;;;28.01;100.00
11523;BME280;70090;43.208;27.904;2023-07-31T08:00:53;100420.56;;;28.05;100.00
11523;BME280;70090;43.208;27.904;2023-07-31T08:03:20;100418.78;;;28.07;100.00
11523;BME280;70090;43.208;27.904;2023-07-31T08:05:47;100419.00;;;28.04;100.00
11523;BME280;70090;43.208;27.904;2023-07-31T08:08:15;100421.91;;;27.89;100.00
11523;BME280;70090;43.208;27.904;2023-07-31T08:10:43;100420.34;;;27.68;100.00
11523;BME280;70090;43.208;27.904;2023-07-31T08:13:10;100421.06;;;27.63;99.99
11523;BME280;70090;43.208;27.904;2023-07-31T08:15:37;100426.00;;;27.68;100.00
11523;BME280;70090;43.208;27.904;2023-07-31T08:18:06;100420.88;;;27.72;99.57
11523;BME280;70090;43.208;27.904;2023-07-31T08:20:32;100430.25;;;27.78;99.06
11523;BME280;70090;43.208;27.904;2023-07-31T08:22:59;100422.78;;;27.95;94.59
11523;BME280;70090;43.208;27.904;2023-07-31T08:25:26;100422.63;;;27.84;94.02
11523;BME280;70090;43.208;27.904;2023-07-31T08:27:53;100415.13;;;28.01;92.08
11523;BME280;70090;43.208;27.904;2023-07-31T08:30:21;100424.00;;;28.14;91.54
11523;BME280;70090;43.208;27.904;2023-07-31T08:32:48;100430.94;;;28.33;89.87
11523;BME280;70090;43.208;27.904;2023-07-31T08:35:17;100433.06;;;28.38;88.41
11523;BME280;70090;43.208;27.904;2023-07-31T08:37:44;100437.94;;;28.63;88.17
11523;BME280;70090;43.208;27.904;2023-07-31T08:40:11;100437.84;;;28.83;86.68
11523;BME280;70090;43.208;27.904;2023-07-31T08:42:44;100435.34;;;28.90;86.40
11523;BME280;70090;43.208;27.904;2023-07-31T08:45:13;100433.50;;;29.13;83.36
11523;BME280;70090;43.208;27.904;2023-07-31T08:47:42;100435.75;;;29.09;78.05
11523;BME280;70090;43.208;27.904;2023-07-31T08:50:09;100429.00;;;29.01;79.12
11523;BME280;70090;43.208;27.904;2023-07-31T08:52:38;100438.31;;;29.07;79.16
11523;BME280;70090;43.208;27.904;2023-07-31T08:55:07;100426.69;;;28.99;78.23
11523;BME280;70090;43.208;27.904;2023-07-31T08:57:35;100430.28;;;29.00;77.23
11523;BME280;70090;43.208;27.904;2023-07-31T09:00:04;100442.78;;;28.88;76.36
11523;BME280;70090;43.208;27.904;2023-07-31T09:02:37;100434.47;;;28.28;83.47
11523;BME280;70090;43.208;27.904;2023-07-31T09:05:06;100440.22;;;28.34;85.30
11523;BME280;70090;43.208;27.904;2023-07-31T09:07:34;100444.94;;;28.42;80.45
11523;BME280;70090;43.208;27.904;2023-07-31T09:10:03;100445.13;;;28.39;79.29
11523;BME280;70090;43.208;27.904;2023-07-31T09:12:31;100445.47;;;28.26;81.01
11523;BME280;70090;43.208;27.904;2023-07-31T09:14:58;100451.31;;;28.17;82.38
11523;BME280;70090;43.208;27.904;2023-07-31T09:17:29;100442.97;;;28.08;82.28
11523;BME280;70090;43.208;27.904;2023-07-31T09:19:56;100439.88;;;28.06;83.09
11523;BME280;70090;43.208;27.904;2023-07-31T09:22:31;100440.50;;;28.16;83.31
11523;BME280;70090;43.208;27.904;2023-07-31T09:25:14;100444.97;;;28.02;81.71
11523;BME280;70090;43.208;27.904;2023-07-31T09:27:49;100456.97;;;28.17;82.92
11523;BME280;70090;43.208;27.904;2023-07-31T09:30:16;100456.97;;;28.17;82.29
11523;BME280;70090;43.208;27.904;2023-07-31T09:32:44;100463.63;;;27.94;82.84
11523;BME280;70090;43.208;27.904;2023-07-31T09:35:19;100457.53;;;28.01;83.28
11523;BME280;70090;43.208;27.904;2023-07-31T09:37:51;100454.31;;;28.08;82.54
11523;BME280;70090;43.208;27.904;2023-07-31T09:40:31;100449.59;;;28.45;82.06
11523;BME280;70090;43.208;27.904;2023-07-31T09:42:59;100445.94;;;28.65;81.10
11523;BME280;70090;43.208;27.904;2023-07-31T09:45:27;100455.63;;;28.83;79.54
11523;BME280;70090;43.208;27.904;2023-07-31T09:47:54;100447.13;;;28.83;80.33
11523;BME280;70090;43.208;27.904;2023-07-31T09:50:23;100449.47;;;28.85;79.30
11523;BME280;70090;43.208;27.904;2023-07-31T09:52:50;100459.00;;;28.87;77.84
11523;BME280;70090;43.208;27.904;2023-07-31T09:55:18;100447.66;;;28.57;78.10
11523;BME280;70090;43.208;27.904;2023-07-31T09:57:48;100447.03;;;28.47;77.84
11523;BME280;70090;43.208;27.904;2023-07-31T10:00:18;100456.75;;;28.41;77.23
11523;BME280;70090;43.208;27.904;2023-07-31T10:02:48;100449.84;;;28.47;77.48
11523;BME280;70090;43.208;27.904;2023-07-31T10:05:15;100438.31;;;28.51;76.10
11523;BME280;70090;43.208;27.904;2023-07-31T10:07:46;100441.16;;;28.51;76.59
11523;BME280;70090;43.208;27.904;2023-07-31T10:10:16;100449.22;;;28.58;75.47
11523;BME280;70090;43.208;27.904;2023-07-31T10:12:47;100441.81;;;28.40;76.39
11523;BME280;70090;43.208;27.904;2023-07-31T10:15:15;100451.19;;;28.32;77.35
11523;BME280;70090;43.208;27.904;2023-07-31T10:17:43;100450.44;;;28.31;77.08
11523;BME280;70090;43.208;27.904;2023-07-31T10:20:10;100448.47;;;28.37;78.36
11523;BME280;70090;43.208;27.904;2023-07-31T10:22:38;100446.75;;;28.25;77.68
11523;BME280;70090;43.208;27.904;2023-07-31T10:25:07;100447.34;;;28.29;78.55
11523;BME280;70090;43.208;27.904;2023-07-31T10:27:35;100447.75;;;28.22;77.94
11523;BME280;70090;43.208;27.904;2023-07-31T10:30:08;100442.09;;;28.22;78.51
11523;BME280;70090;43.208;27.904;2023-07-31T10:32:38;100445.88;;;28.14;78.78
11523;BME280;70090;43.208;27.904;2023-07-31T10:35:07;100451.03;;;28.35;79.05
11523;BME280;70090;43.208;27.904;2023-07-31T10:37:37;100443.38;;;28.41;78.01
11523;BME280;70090;43.208;27.904;2023-07-31T10:40:05;100452.09;;;28.63;77.66
11523;BME280;70090;43.208;27.904;2023-07-31T10:42:34;100446.88;;;28.56;76.97
11523;BME280;70090;43.208;27.904;2023-07-31T10:45:05;100408.19;;;28.28;77.02
11523;BME280;70090;43.208;27.904;2023-07-31T10:47:37;100444.13;;;28.67;76.61
11523;BME280;70090;43.208;27.904;2023-07-31T10:50:16;100444.28;;;28.83;75.44
11523;BME280;70090;43.208;27.904;2023-07-31T10:52:47;100449.59;;;28.70;76.97
11523;BME280;70090;43.208;27.904;2023-07-31T10:55:25;100438.69;;;28.63;76.70
11523;BME280;70090;43.208;27.904;2023-07-31T10:57:53;100439.56;;;28.75;76.43
11523;BME280;70090;43.208;27.904;2023-07-31T11:00:26;100446.69;;;28.65;77.27
11523;BME280;70090;43.208;27.904;2023-07-31T11:03:03;100431.88;;;28.50;76.90
11523;BME280;70090;43.208;27.904;2023-07-31T11:05:45;100439.81;;;28.46;76.20
11523;BME280;70090;43.208;27.904;2023-07-31T11:08:13;100436.28;;;28.51;76.30
11523;BME280;70090;43.208;27.904;2023-07-31T11:10:41;100433.47;;;28.31;77.17
11523;BME280;70090;43.208;27.904;2023-07-31T11:13:08;100435.44;;;28.25;77.73
11523;BME280;70090;43.208;27.904;2023-07-31T11:15:36;100432.78;;;28.16;78.74
11523;BME280;70090;43.208;27.904;2023-07-31T11:18:03;100439.44;;;28.13;79.15
11523;BME280;70090;43.208;27.904;2023-07-31T11:20:31;100423.31;;;27.99;79.44
11523;BME280;70090;43.208;27.904;2023-07-31T11:23:00;100425.53;;;27.90;80.71
11523;BME280;70090;43.208;27.904;2023-07-31T11:25:29;100416.69;;;27.82;80.94
11523;BME280;70090;43.208;27.904;2023-07-31T11:27:57;100416.41;;;27.80;81.81
11523;BME280;70090;43.208;27.904;2023-07-31T11:30:24;100408.91;;;27.97;81.71
11523;BME280;70090;43.208;27.904;2023-07-31T11:32:52;100412.94;;;28.11;81.57
11523;BME280;70090;43.208;27.904;2023-07-31T11:35:19;100415.50;;;28.14;79.90
11523;BME280;70090;43.208;27.904;2023-07-31T11:37:46;100408.09;;;28.17;79.53
11523;BME280;70090;43.208;27.904;2023-07-31T11:40:14;100399.69;;;28.02;80.82
11523;BME280;70090;43.208;27.904;2023-07-31T11:42:41;100406.63;;;28.01;80.98
11523;BME280;70090;43.208;27.904;2023-07-31T11:45:09;100408.69;;;28.01;80.45
11523;BME280;70090;43.208;27.904;2023-07-31T11:47:36;100407.47;;;28.07;80.44
11523;BME280;70090;43.208;27.904;2023-07-31T11:50:10;100403.91;;;28.12;80.59
11523;BME280;70090;43.208;27.904;2023-07-31T11:52:41;100401.38;;;28.14;80.41
11523;BME280;70090;43.208;27.904;2023-07-31T11:55:09;100410.63;;;28.35;80.63
11523;BME280;70090;43.208;27.904;2023-07-31T11:57:37;100403.81;;;28.27;80.71
11523;BME280;70090;43.208;27.904;2023-07-31T12:00:07;100395.94;;;28.11;82.27
11523;BME280;70090;43.208;27.904;2023-07-31T12:02:37;100407.50;;;27.87;82.46
11523;BME280;70090;43.208;27.904;2023-07-31T12:05:09;100409.91;;;27.74;83.65
11523;BME280;70090;43.208;27.904;2023-07-31T12:07:44;100410.28;;;27.67;84.65
11523;BME280;70090;43.208;27.904;2023-07-31T12:10:11;100417.34;;;27.57;85.64
11523;BME280;70090;43.208;27.904;2023-07-31T12:12:38;100405.63;;;27.44;86.33
11523;BME280;70090;43.208;27.904;2023-07-31T12:15:14;100409.41;;;27.41;87.58
11523;BME280;70090;43.208;27.904;2023-07-31T12:17:41;100404.16;;;27.14;89.59
11523;BME280;70090;43.208;27.904;2023-07-31T12:20:10;100393.44;;;27.04;89.68
11523;BME280;70090;43.208;27.904;2023-07-31T12:22:37;100388.97;;;26.97;91.57
11523;BME280;70090;43.208;27.904;2023-07-31T12:25:04;100386.06;;;26.77;99.91
11523;BME280;70090;43.208;27.904;2023-07-31T12:27:33;100381.03;;;26.67;100.00
11523;BME280;70090;43.208;27.904;2023-07-31T12:30:00;100385.31;;;26.48;100.00
11523;BME280;70090;43.208;27.904;2023-07-31T12:32:30;100380.22;;;26.08;100.00
11523;BME280;70090;43.208;27.904;2023-07-31T12:34:59;100380.22;;;26.08;100.00
11523;BME280;70090;43.208;27.904;2023-07-31T12:37:29;100384.34;;;26.22;100.00
11523;BME280;70090;43.208;27.904;2023-07-31T12:39:57;100374.22;;;26.30;100.00